Chapeltown, United Kingdom
Current Conditions -  °F | °C
As of 8:50 PM on Tuesday 21 Oct 2014 (Local Time) from EGCN Reporting Station
Clear Clear  
Wind Chill: 39°   Ceiling: Unl
Heat Index: 46°   Visibility: 6mi
Dew Point: 36°   Wind: 20mph
Humidity: 66%   Direction: 290°WNW
Pressure: 29.97"   Gusts: NA
Location:  53.47°N, 1.47°W
Report Text: EGCN 211950Z 29017KT CAVOK 08/02 Q1015
Loading
Personal Weather Stations






























Interactive Weather Map
Tropical Storm Tracking
New forecast layout! Learn more

10-Day Weather Forecast

Advertisements
Track Severe Weather on mobile